Time;durP1;ratioP1;P1;durP2;ratioP2;P2;SDS_P1;SDS_P2;PMS_P1;PMS_P2;Temp;Humidity;BMP_temperature;BMP_pressure;BME280_temperature;BME280_humidity;BME280_pressure;Samples;Min_cycle;Max_cycle;Signal;HPM_P1;HPM_P2
2022/07/02 00:01:02;;;;;;;5.40;4.10;;;;;;;12.74;89.51;102184.50;5036268;28;20054;-47
2022/07/02 00:03:34;;;;;;;5.20;4.70;;;;;;;12.72;90.03;102184.19;5036830;28;20054;-46
2022/07/02 00:06:02;;;;;;;5.25;4.32;;;;;;;12.70;90.17;102181.94;5035803;28;20057;-46
2022/07/02 00:08:32;;;;;;;6.28;4.95;;;;;;;12.66;90.54;102176.66;5026468;28;20057;-47
2022/07/02 00:11:01;;;;;;;4.53;4.18;;;;;;;12.63;90.86;102184.75;5036453;28;20054;-47
2022/07/02 00:13:27;;;;;;;8.57;4.78;;;;;;;12.60;90.84;102185.59;5034637;28;20513;-45
2022/07/02 00:15:55;;;;;;;4.95;4.60;;;;;;;12.57;90.89;102191.78;5036263;28;20097;-50
2022/07/02 00:18:22;;;;;;;6.88;4.45;;;;;;;12.60;91.10;102188.25;5036687;28;20054;-51
2022/07/02 00:20:48;;;;;;;4.90;4.50;;;;;;;12.60;90.78;102188.25;5036429;28;20054;-47
2022/07/02 00:23:15;;;;;;;7.03;4.60;;;;;;;12.51;90.99;102193.44;5035934;28;20062;-46
2022/07/02 00:25:44;;;;;;;4.85;4.43;;;;;;;12.49;90.77;102195.78;5036415;28;20054;-47
2022/07/02 00:28:12;;;;;;;7.15;5.10;;;;;;;12.48;90.87;102196.94;5036022;28;20520;-48
2022/07/02 00:30:42;;;;;;;6.95;4.90;;;;;;;12.43;91.27;102186.75;5036462;28;20133;-45
2022/07/02 00:33:12;;;;;;;6.05;4.95;;;;;;;12.40;91.42;102193.69;5034797;28;20069;-46
2022/07/02 00:35:39;;;;;;;8.10;4.70;;;;;;;12.38;91.48;102197.97;5036139;28;20061;-45
2022/07/02 00:38:06;;;;;;;5.18;4.68;;;;;;;12.34;91.84;102200.69;5036298;28;20042;-46
2022/07/02 00:40:34;;;;;;;5.80;5.30;;;;;;;12.39;92.38;102194.13;5035302;28;20496;-44
2022/07/02 00:43:01;;;;;;;6.60;5.07;;;;;;;12.38;91.85;102200.63;5035995;28;20058;-46
2022/07/02 00:45:27;;;;;;;7.22;5.43;;;;;;;12.33;91.90;102194.63;5036186;28;20498;-44
2022/07/02 00:47:55;;;;;;;5.57;5.03;;;;;;;12.34;91.82;102203.38;5036130;28;20053;-44
2022/07/02 00:50:22;;;;;;;11.05;5.78;;;;;;;12.32;91.82;102197.69;5034154;28;20058;-46
2022/07/02 00:52:50;;;;;;;5.50;5.10;;;;;;;12.26;91.67;102189.44;5036217;28;20090;-45
2022/07/02 00:55:16;;;;;;;6.65;5.28;;;;;;;12.24;91.78;102186.41;5036127;28;20057;-44
2022/07/02 00:57:45;;;;;;;5.85;5.30;;;;;;;12.21;91.74;102192.59;5035578;28;20053;-46
2022/07/02 01:00:17;;;;;;;8.02;5.65;;;;;;;12.16;91.73;102184.31;5035299;28;20053;-46
2022/07/02 01:02:45;;;;;;;9.55;5.70;;;;;;;12.12;92.26;102181.72;5035649;28;20050;-45
2022/07/02 01:05:19;;;;;;;6.80;6.00;;;;;;;12.11;92.11;102182.88;5035956;28;20050;-51
2022/07/02 01:10:16;;;;;;;10.88;6.15;;;;;;;12.10;92.11;102178.72;5036061;28;20049;-46
2022/07/02 01:10:44;;;;;;;8.85;6.20;;;;;;;12.06;92.12;102174.63;5035979;28;20499;-46
2022/07/02 01:13:11;;;;;;;7.07;6.32;;;;;;;12.04;92.17;102167.03;5035541;28;20061;-49
2022/07/02 01:15:39;;;;;;;10.35;6.82;;;;;;;12.01;92.25;102183.88;5035055;28;20045;-51
2022/07/02 01:18:06;;;;;;;7.25;6.65;;;;;;;11.99;92.65;102172.88;5035572;28;20046;-46
2022/07/02 01:20:32;;;;;;;8.57;6.72;;;;;;;11.94;92.39;102171.44;5031341;28;20056;-48
2022/07/02 01:22:59;;;;;;;8.27;7.05;;;;;;;11.91;92.61;102176.84;5035729;28;20061;-48
2022/07/02 01:25:25;;;;;;;7.63;6.90;;;;;;;11.87;92.85;102179.59;5034686;28;20189;-45
2022/07/02 01:27:52;;;;;;;9.77;7.50;;;;;;;11.85;92.53;102176.59;5035350;28;20426;-45
2022/07/02 01:30:19;;;;;;;8.00;7.18;;;;;;;11.85;93.08;102181.19;5034241;28;20060;-46
2022/07/02 01:32:45;;;;;;;8.10;7.30;;;;;;;11.81;92.90;102169.81;5034166;28;20061;-45
2022/07/02 01:35:12;;;;;;;8.60;7.63;;;;;;;11.78;93.58;102174.06;5035099;28;20056;-46
2022/07/02 01:37:39;;;;;;;8.50;7.60;;;;;;;11.78;93.39;102174.06;5035551;28;20042;-45
2022/07/02 01:40:07;;;;;;;8.88;7.57;;;;;;;11.78;93.48;102174.06;5035169;28;20050;-49
2022/07/02 01:42:34;;;;;;;11.05;7.85;;;;;;;11.74;93.26;102176.03;5034523;28;20060;-46
2022/07/02 01:45:00;;;;;;;8.68;7.70;;;;;;;11.71;93.87;102176.84;5034784;28;20053;-50
2022/07/02 01:47:26;;;;;;;10.90;8.40;;;;;;;11.73;93.66;102179.84;5035149;28;20512;-49
2022/07/02 01:49:53;;;;;;;9.38;8.38;;;;;;;11.72;93.78;102178.34;5035303;28;20049;-52
2022/07/02 01:52:19;;;;;;;8.63;7.85;;;;;;;11.73;94.15;102174.50;5035138;28;20052;-48
2022/07/02 01:54:46;;;;;;;9.98;7.90;;;;;;;11.72;94.02;102180.25;5034432;28;20489;-48
2022/07/02 01:57:13;;;;;;;9.48;8.63;;;;;;;11.69;93.98;102179.91;5034864;28;20572;-52
2022/07/02 01:59:40;;;;;;;9.05;8.10;;;;;;;11.66;93.79;102177.31;5035048;28;20076;-47
2022/07/02 02:02:06;;;;;;;9.35;8.35;;;;;;;11.64;93.89;102179.66;5034488;28;20539;-47
2022/07/02 02:04:34;;;;;;;13.35;8.43;;;;;;;11.63;94.01;102178.16;5035159;28;20050;-50
2022/07/02 02:07:00;;;;;;;9.23;8.32;;;;;;;11.61;93.85;102178.56;5033171;28;20489;-48
2022/07/02 02:09:27;;;;;;;15.35;8.90;;;;;;;11.59;93.84;102180.91;5034002;28;20477;-47
2022/07/02 02:11:53;;;;;;;9.07;8.18;;;;;;;11.59;94.04;102174.81;5034320;28;20061;-46
2022/07/02 02:14:19;;;;;;;11.00;7.65;;;;;;;11.55;93.39;102174.13;5033860;28;20054;-47
2022/07/02 02:16:46;;;;;;;9.23;8.43;;;;;;;11.54;94.27;102178.72;5034603;28;20485;-49
2022/07/02 02:19:12;;;;;;;10.38;8.15;;;;;;;11.52;94.37;102180.28;5035018;28;20137;-50
2022/07/02 02:21:39;;;;;;;10.23;8.60;;;;;;;11.50;93.99;102177.28;5034109;28;20054;-50
2022/07/02 02:24:06;;;;;;;12.63;8.65;;;;;;;11.47;94.46;102173.50;5034275;28;20426;-49
2022/07/02 02:26:32;;;;;;;9.55;8.55;;;;;;;11.46;94.21;102174.69;5034623;28;20450;-48
2022/07/02 02:28:58;;;;;;;9.65;8.85;;;;;;;11.46;94.56;102171.25;5034313;28;20050;-49
2022/07/02 02:31:25;;;;;;;8.63;7.93;;;;;;;11.45;94.14;102177.75;5034372;28;20434;-45
2022/07/02 02:33:51;;;;;;;10.55;9.48;;;;;;;11.43;94.22;102172.06;5034357;28;20137;-47
2022/07/02 02:36:18;;;;;;;9.57;8.68;;;;;;;11.39;94.13;102169.47;5034399;28;20072;-45
2022/07/02 02:38:46;;;;;;;14.50;8.70;;;;;;;11.38;94.23;102181.31;5034369;28;20049;-47
2022/07/02 02:41:13;;;;;;;9.43;8.52;;;;;;;11.31;94.05;102171.53;5033517;28;20062;-46
2022/07/02 02:43:40;;;;;;;10.13;9.20;;;;;;;11.25;94.06;102177.72;5034362;28;20049;-49
2022/07/02 02:46:06;;;;;;;9.38;8.48;;;;;;;11.22;94.57;102178.53;5033731;28;20049;-47
2022/07/02 02:48:35;;;;;;;11.27;9.18;;;;;;;11.20;94.83;102170.97;5033997;28;20054;-47
2022/07/02 02:51:02;;;;;;;9.52;8.55;;;;;;;11.20;94.60;102176.28;5033891;28;20050;-45
2022/07/02 02:53:28;;;;;;;9.30;8.50;;;;;;;11.20;94.29;102170.97;5034526;28;20440;-46
2022/07/02 02:55:55;;;;;;;18.83;9.80;;;;;;;11.16;94.61;102180.19;5032722;28;20498;-48
2022/07/02 02:58:21;;;;;;;9.30;8.50;;;;;;;11.12;94.64;102180.25;5034387;28;20054;-50
2022/07/02 03:00:47;;;;;;;9.68;8.63;;;;;;;11.10;94.31;102182.59;5034001;28;20061;-45
2022/07/02 03:03:14;;;;;;;9.77;8.82;;;;;;;11.06;93.97;102181.88;5034171;28;20046;-45
2022/07/02 03:05:41;;;;;;;11.45;9.00;;;;;;;11.08;94.46;102189.47;5033350;28;20470;-47
2022/07/02 03:08:07;;;;;;;10.13;8.80;;;;;;;11.04;94.57;102184.22;5034142;28;20052;-45
2022/07/02 03:10:33;;;;;;;12.20;9.60;;;;;;;11.01;94.28;102182.34;5034122;28;20083;-46
2022/07/02 03:13:00;;;;;;;10.32;9.45;;;;;;;11.00;94.49;102186.19;5033862;28;20046;-45
2022/07/02 03:15:26;;;;;;;9.98;8.95;;;;;;;10.99;94.48;102190.75;5033376;28;20045;-45
2022/07/02 03:17:53;;;;;;;9.93;8.88;;;;;;;10.97;94.80;102185.06;5034109;28;20073;-45
2022/07/02 03:20:19;;;;;;;13.35;10.02;;;;;;;10.97;95.22;102187.75;5033474;28;20064;-45
2022/07/02 03:22:46;;;;;;;10.32;9.32;;;;;;;10.99;95.05;102187.34;5034939;28;20050;-46
2022/07/02 03:25:12;;;;;;;9.80;8.88;;;;;;;11.00;95.12;102188.84;5037207;28;20597;-51
2022/07/02 03:27:38;;;;;;;18.85;11.02;;;;;;;10.98;95.91;102191.16;5036945;28;20556;-52
2022/07/02 03:30:06;;;;;;;11.35;9.80;;;;;;;11.01;95.39;102199.09;5036844;28;20054;-44
2022/07/02 03:32:32;;;;;;;10.45;9.27;;;;;;;11.01;95.47;102199.09;5037297;28;20050;-50
2022/07/02 03:34:59;;;;;;;12.15;9.75;;;;;;;11.00;95.42;102194.91;5036941;28;20434;-48
2022/07/02 03:37:28;;;;;;;11.38;9.05;;;;;;;11.00;95.40;102194.91;5037223;28;20050;-47
2022/07/02 03:39:55;;;;;;;10.57;9.35;;;;;;;10.99;95.05;102195.34;5035978;28;20058;-46
2022/07/02 03:42:21;;;;;;;12.07;8.77;;;;;;;10.98;94.59;102194.56;5037151;28;20049;-49
2022/07/02 03:44:47;;;;;;;12.00;8.93;;;;;;;10.99;94.73;102196.09;5037094;28;20458;-48
2022/07/02 03:47:14;;;;;;;9.23;8.40;;;;;;;11.00;94.85;102197.59;5037082;28;20050;-49
2022/07/02 03:49:40;;;;;;;12.07;8.85;;;;;;;10.99;94.27;102193.41;5036282;28;20438;-45
2022/07/02 03:52:07;;;;;;;9.55;8.55;;;;;;;11.02;95.20;102195.28;5036861;28;20054;-45
2022/07/02 03:54:34;;;;;;;10.32;9.18;;;;;;;11.05;95.17;102190.28;5036161;28;20049;-47
2022/07/02 03:57:00;;;;;;;14.30;9.80;;;;;;;11.06;95.02;102197.13;5036724;28;20050;-45
2022/07/02 03:59:26;;;;;;;10.25;8.68;;;;;;;11.08;95.63;102189.47;5036936;28;20517;-45
2022/07/02 04:01:53;;;;;;;11.43;8.50;;;;;;;11.10;95.06;102195.16;5035917;28;20046;-50
2022/07/02 04:04:20;;;;;;;9.50;8.63;;;;;;;11.12;95.21;102188.25;5036567;28;20057;-45
2022/07/02 04:06:46;;;;;;;11.95;8.85;;;;;;;11.19;95.23;102201.47;5036287;28;20076;-44
2022/07/02 04:09:13;;;;;;;10.50;9.15;;;;;;;11.24;95.36;102200.22;5036545;28;20053;-43
2022/07/02 04:11:40;;;;;;;12.18;8.73;;;;;;;11.33;95.39;102203.09;5036113;28;20053;-47
2022/07/02 04:14:06;;;;;;;10.15;9.07;;;;;;;11.41;95.51;102203.72;5036803;28;20061;-45
2022/07/02 04:16:32;;;;;;;10.48;8.63;;;;;;;11.46;95.30;102213.91;5035558;28;20485;-47
2022/07/02 04:18:59;;;;;;;10.93;8.73;;;;;;;11.50;95.30;102212.69;5036524;28;20057;-43
2022/07/02 04:21:41;;;;;;;12.73;8.88;;;;;;;11.58;95.27;102216.75;5036454;28;20050;-47
2022/07/02 04:24:07;;;;;;;9.38;8.35;;;;;;;11.67;95.01;102213.50;5036202;28;20054;-46
2022/07/02 04:26:34;;;;;;;8.85;8.05;;;;;;;11.76;94.88;102215.63;5036508;28;20050;-44
2022/07/02 04:29:01;;;;;;;9.90;8.40;;;;;;;11.81;94.50;102215.19;5036290;28;20061;-48
2022/07/02 04:31:28;;;;;;;10.25;8.40;;;;;;;11.84;94.95;102217.03;5035965;28;20056;-44
2022/07/02 04:33:55;;;;;;;9.52;7.90;;;;;;;11.94;94.53;102213.41;5034739;28;20050;-44
2022/07/02 04:36:21;;;;;;;10.23;7.60;;;;;;;12.04;93.49;102215.06;5036260;28;20052;-48
2022/07/02 04:38:47;;;;;;;8.50;7.65;;;;;;;12.14;94.00;102227.44;5035729;28;20097;-45
2022/07/02 04:41:14;;;;;;;10.30;7.72;;;;;;;12.16;93.95;102222.44;5035561;28;20061;-48
2022/07/02 04:43:40;;;;;;;10.80;7.93;;;;;;;12.20;93.68;102227.72;5035718;28;20057;-45
2022/07/02 04:46:07;;;;;;;9.45;7.60;;;;;;;12.19;92.30;102224.28;5036100;28;20054;-44
2022/07/02 04:48:33;;;;;;;8.23;7.22;;;;;;;12.17;93.07;102225.88;5035721;28;20136;-44
2022/07/02 04:50:59;;;;;;;7.85;7.13;;;;;;;12.10;92.57;102226.75;5036004;28;20057;-46
2022/07/02 04:53:26;;;;;;;10.70;6.40;;;;;;;12.09;92.19;102217.25;5035958;28;20046;-45
2022/07/02 04:55:52;;;;;;;9.05;7.38;;;;;;;12.10;92.02;102218.75;5035539;28;20049;-46
2022/07/02 04:58:19;;;;;;;7.82;7.03;;;;;;;12.15;92.26;102210.25;5035089;28;20576;-45
2022/07/02 05:00:45;;;;;;;9.20;7.00;;;;;;;12.20;92.71;102217.03;5035420;28;20054;-47
2022/07/02 05:03:12;;;;;;;7.50;6.68;;;;;;;12.22;92.36;102212.78;5035481;28;20157;-51
2022/07/02 05:05:38;;;;;;;10.38;7.28;;;;;;;12.25;92.45;102217.28;5035190;28;20492;-49
2022/07/02 05:08:04;;;;;;;6.93;6.32;;;;;;;12.31;92.38;102217.56;5035872;28;20058;-48
2022/07/02 05:10:31;;;;;;;8.63;6.97;;;;;;;12.38;92.47;102216.66;5034925;28;20054;-49
2022/07/02 05:12:58;;;;;;;8.23;6.80;;;;;;;12.44;91.80;102220.31;5035702;28;20050;-44
2022/07/02 05:15:25;;;;;;;9.27;6.35;;;;;;;12.48;90.95;102218.31;5032150;28;20058;-45
2022/07/02 05:17:51;;;;;;;7.60;5.82;;;;;;;12.54;90.81;102222.00;5034925;28;20046;-46
2022/07/02 05:20:18;;;;;;;7.95;5.60;;;;;;;12.64;90.74;102221.75;5033260;28;20049;-48
2022/07/02 05:22:44;;;;;;;8.25;5.47;;;;;;;12.77;89.75;102224.50;5032710;28;20050;-47
2022/07/02 05:25:11;;;;;;;5.72;5.22;;;;;;;12.89;89.74;102223.06;5032831;28;20064;-45
2022/07/02 05:27:37;;;;;;;6.25;5.18;;;;;;;12.89;88.55;102228.41;5032276;28;20045;-49
2022/07/02 05:30:04;;;;;;;8.73;5.80;;;;;;;12.94;88.50;102228.66;5032909;28;20046;-44
2022/07/02 05:32:31;;;;;;;15.50;5.82;;;;;;;13.08;88.14;102224.13;5034144;28;20056;-48
2022/07/02 05:34:57;;;;;;;5.53;4.75;;;;;;;14.76;82.99;102227.00;5035638;28;20061;-44
2022/07/02 05:37:24;;;;;;;5.90;4.93;;;;;;;19.22;64.86;102235.78;5035135;28;20053;-48
2022/07/02 05:39:50;;;;;;;6.43;4.20;;;;;;;22.53;52.90;102244.50;5034210;28;20507;-44
2022/07/02 05:42:17;;;;;;;5.40;3.83;;;;;;;23.99;47.67;102242.75;5034542;28;20046;-47
2022/07/02 05:44:43;;;;;;;3.67;3.47;;;;;;;25.23;44.88;102247.16;5032511;28;20061;-44
2022/07/02 05:47:10;;;;;;;5.68;3.30;;;;;;;25.99;41.27;102255.75;5033199;28;20066;-45
2022/07/02 05:49:36;;;;;;;6.50;3.00;;;;;;;26.08;41.49;102249.91;5032581;28;20061;-45
2022/07/02 05:52:03;;;;;;;6.13;3.17;;;;;;;26.62;39.63;102257.25;5033814;28;20485;-46
2022/07/02 05:54:29;;;;;;;5.40;3.20;;;;;;;27.61;37.61;102256.31;5033497;28;20050;-45
2022/07/02 05:56:55;;;;;;;3.30;2.90;;;;;;;28.19;36.02;102262.44;5034294;28;20054;-47
2022/07/02 05:59:22;;;;;;;6.25;3.22;;;;;;;27.92;36.52;102258.25;5034688;28;20058;-47
2022/07/02 06:01:49;;;;;;;6.28;3.35;;;;;;;28.55;34.46;102262.00;5034743;28;20057;-52
2022/07/02 06:04:15;;;;;;;3.97;3.08;;;;;;;28.34;35.04;102255.72;5034139;28;20054;-50
2022/07/02 06:09:27;;;;;;;3.60;3.05;;;;;;;29.27;33.31;102261.66;5033685;28;20056;-49
2022/07/02 06:11:53;;;;;;;4.22;3.50;;;;;;;29.24;32.99;102262.72;5034523;28;20487;-47
2022/07/02 06:14:19;;;;;;;8.13;3.22;;;;;;;30.18;32.27;102259.56;5033976;28;20091;-49
2022/07/02 06:16:46;;;;;;;5.57;2.88;;;;;;;30.42;31.31;102255.63;5034294;28;20069;-49
2022/07/02 06:19:12;;;;;;;5.10;3.15;;;;;;;30.49;30.86;102263.91;5033523;28;20521;-48
2022/07/02 06:21:39;;;;;;;5.05;2.83;;;;;;;30.34;30.69;102268.63;5034016;28;20046;-51
2022/07/02 06:24:10;;;;;;;4.97;2.47;;;;;;;30.71;30.48;102270.78;5034374;28;20494;-49
2022/07/02 06:26:37;;;;;;;3.25;2.50;;;;;;;29.95;31.73;102267.66;5034343;28;20065;-48
2022/07/02 06:29:03;;;;;;;4.90;2.30;;;;;;;30.06;30.71;102267.38;5033985;28;20046;-49
2022/07/02 06:31:30;;;;;;;2.95;2.33;;;;;;;30.28;31.47;102271.53;5034253;28;20049;-47
2022/07/02 06:33:56;;;;;;;4.38;2.10;;;;;;;30.57;31.16;102276.97;5033873;28;20090;-47
2022/07/02 06:36:24;;;;;;;3.28;2.17;;;;;;;30.80;29.11;102275.72;5033402;28;20046;-50
2022/07/02 06:38:51;;;;;;;2.38;2.15;;;;;;;31.54;28.73;102277.66;5034141;28;20081;-52
2022/07/02 06:44:04;;;;;;;3.17;2.10;;;;;;;30.28;31.13;102279.03;5034463;28;20060;-48
2022/07/02 06:46:31;;;;;;;2.45;1.92;;;;;;;30.88;30.17;102294.25;5033550;28;20068;-49
2022/07/02 06:48:57;;;;;;;3.97;2.25;;;;;;;30.78;30.31;102294.06;5033658;28;20513;-47
2022/07/02 06:51:24;;;;;;;4.38;1.90;;;;;;;29.88;31.27;102292.31;5034299;28;20050;-50
2022/07/02 06:53:50;;;;;;;1.90;1.75;;;;;;;28.83;32.45;102280.59;5034070;28;20149;-48
2022/07/02 06:56:17;;;;;;;4.78;1.90;;;;;;;29.44;32.63;102292.91;5034968;28;20185;-46
2022/07/02 06:58:43;;;;;;;2.20;1.63;;;;;;;29.72;32.08;102291.47;5037948;28;20050;-46
2022/07/02 07:01:10;;;;;;;1.88;1.60;;;;;;;27.30;36.36;102296.06;5036636;28;20056;-45
2022/07/02 07:03:36;;;;;;;3.13;1.65;;;;;;;26.04;36.55;102296.59;5037889;28;20056;-49
2022/07/02 07:06:03;;;;;;;4.95;1.65;;;;;;;24.14;39.64;102286.72;5036868;28;20058;-49
2022/07/02 07:08:29;;;;;;;1.85;1.70;;;;;;;22.97;42.31;102280.47;5036719;28;20418;-46
2022/07/02 07:10:56;;;;;;;4.05;1.65;;;;;;;22.40;43.60;102292.28;5037832;28;20050;-46
2022/07/02 07:13:22;;;;;;;1.83;1.65;;;;;;;23.00;43.69;102285.66;5037554;28;20050;-47
2022/07/02 07:15:49;;;;;;;2.10;1.45;;;;;;;23.91;44.22;102288.00;5036548;28;20517;-48
2022/07/02 07:18:15;;;;;;;5.43;2.00;;;;;;;25.56;38.25;102291.78;5037060;28;20466;-51
2022/07/02 07:20:41;;;;;;;3.72;1.70;;;;;;;26.52;37.07;102295.09;5037489;28;20057;-49
2022/07/02 07:23:08;;;;;;;4.07;1.70;;;;;;;27.83;35.60;102284.03;5037392;28;20053;-49
2022/07/02 07:25:34;;;;;;;1.95;1.83;;;;;;;28.40;33.83;102289.19;5036797;28;20058;-48
2022/07/02 07:28:00;;;;;;;4.30;1.52;;;;;;;29.32;31.20;102286.19;5037423;28;20329;-46
2022/07/02 07:30:27;;;;;;;2.20;1.35;;;;;;;29.80;32.79;102284.03;5036841;28;20046;-46
2022/07/02 07:32:53;;;;;;;1.67;1.23;;;;;;;29.92;32.11;102285.22;5037329;28;20442;-45
2022/07/02 07:35:20;;;;;;;1.45;1.35;;;;;;;30.12;31.67;102284.44;5036848;28;20054;-46
2022/07/02 07:37:59;;;;;;;1.95;1.50;;;;;;;29.62;30.14;102285.72;5037461;28;20065;-46
2022/07/02 07:40:28;;;;;;;2.05;1.30;;;;;;;29.77;30.84;102285.13;5035825;28;20561;-45
2022/07/02 07:42:55;;;;;;;3.20;1.80;;;;;;;29.71;31.89;102292.75;5036416;28;20052;-45
2022/07/02 07:45:21;;;;;;;1.30;1.20;;;;;;;29.79;31.85;102282.56;5036936;28;20064;-47
2022/07/02 07:47:47;;;;;;;6.07;1.50;;;;;;;29.74;30.11;102288.94;5036874;28;20057;-52
2022/07/02 07:50:14;;;;;;;1.90;1.30;;;;;;;28.86;31.68;102283.00;5037131;28;20046;-50
2022/07/02 07:52:40;;;;;;;2.30;1.17;;;;;;;28.91;32.37;102289.66;5036674;28;20060;-50
2022/07/02 07:55:07;;;;;;;1.70;1.30;;;;;;;28.88;31.91;102287.97;5036875;28;20050;-51
2022/07/02 07:57:33;;;;;;;2.20;1.27;;;;;;;29.02;32.59;102275.69;5036463;28;20524;-49
2022/07/02 08:00:00;;;;;;;1.42;1.33;;;;;;;28.86;33.90;102287.75;5036512;28;20054;-53
2022/07/02 08:02:26;;;;;;;2.38;1.42;;;;;;;28.79;31.69;102280.91;5036920;28;20474;-49
2022/07/02 08:04:52;;;;;;;2.90;1.17;;;;;;;28.67;30.68;102276.22;5037023;28;20137;-53
2022/07/02 08:07:19;;;;;;;1.30;1.20;;;;;;;28.41;31.27;102280.44;5036844;28;20054;-49
2022/07/02 08:09:52;;;;;;;1.25;1.20;;;;;;;28.23;30.03;102283.31;5030550;28;20050;-53
2022/07/02 08:12:20;;;;;;;2.00;1.27;;;;;;;28.21;30.98;102268.16;5034725;28;20050;-51
2022/07/02 08:14:47;;;;;;;2.47;1.30;;;;;;;27.94;31.79;102266.69;5034980;28;20137;-53
2022/07/02 08:17:13;;;;;;;1.50;1.40;;;;;;;27.99;33.15;102262.38;5034538;28;20150;-50
2022/07/02 08:19:40;;;;;;;0.95;0.90;;;;;;;28.33;33.70;102260.47;5036349;28;20050;-49
2022/07/02 08:22:07;;;;;;;0.98;0.98;;;;;;;28.58;32.34;102258.22;5036487;28;20054;-50
2022/07/02 08:24:33;;;;;;;2.30;1.35;;;;;;;28.39;31.21;102246.69;5035694;28;20058;-47
2022/07/02 08:26:59;;;;;;;1.77;1.33;;;;;;;28.59;34.49;102259.69;5036443;28;20054;-50
2022/07/02 08:29:26;;;;;;;6.18;1.30;;;;;;;28.57;35.30;102261.47;5036486;28;20080;-48
2022/07/02 08:31:52;;;;;;;1.48;1.02;;;;;;;28.53;32.36;102265.28;5036372;28;20056;-49
2022/07/02 08:34:19;;;;;;;1.35;1.25;;;;;;;27.81;32.27;102255.72;5035836;28;20054;-48
2022/07/02 08:36:45;;;;;;;1.10;1.10;;;;;;;27.76;36.49;102260.03;5035021;28;20058;-52
2022/07/02 08:39:11;;;;;;;1.30;1.20;;;;;;;27.71;31.17;102254.66;5035720;28;20490;-49
2022/07/02 08:41:40;;;;;;;1.58;1.20;;;;;;;28.32;34.08;102250.78;5036294;28;20045;-49
2022/07/02 08:44:08;;;;;;;1.73;1.15;;;;;;;28.12;33.37;102254.13;5036199;28;20504;-50
2022/07/02 08:46:38;;;;;;;1.35;1.25;;;;;;;27.96;35.54;102257.94;5035875;28;20084;-47
2022/07/02 08:49:05;;;;;;;4.15;1.20;;;;;;;28.55;36.17;102248.31;5036302;28;20082;-46
2022/07/02 08:51:32;;;;;;;1.83;1.10;;;;;;;28.92;33.36;102252.75;5035631;28;20042;-47
2022/07/02 08:54:00;;;;;;;2.20;1.65;;;;;;;28.13;33.02;102250.88;5033919;28;20100;-50
2022/07/02 08:56:27;;;;;;;1.27;1.10;;;;;;;28.00;32.58;102253.59;5033266;28;20052;-52
2022/07/02 08:58:54;;;;;;;1.30;1.20;;;;;;;28.06;34.04;102248.03;5034550;28;20057;-50
2022/07/02 09:01:22;;;;;;;1.35;1.30;;;;;;;28.31;35.58;102243.09;5033682;28;20057;-48
2022/07/02 09:03:51;;;;;;;1.40;1.30;;;;;;;28.07;31.39;102244.75;5035618;28;20141;-49
2022/07/02 09:06:19;;;;;;;2.67;1.30;;;;;;;28.39;34.98;102236.44;5035527;28;20060;-51
2022/07/02 09:08:46;;;;;;;2.60;1.30;;;;;;;28.21;33.08;102240.78;5035773;28;20281;-50
2022/07/02 09:11:12;;;;;;;1.67;1.20;;;;;;;28.42;35.15;102235.38;5034590;28;20050;-48
2022/07/02 09:13:39;;;;;;;1.23;1.13;;;;;;;28.61;32.96;102240.72;5035487;28;20058;-46
2022/07/02 09:16:06;;;;;;;0.90;0.90;;;;;;;29.22;29.60;102235.84;5035556;28;20050;-51
2022/07/02 09:18:34;;;;;;;1.30;1.20;;;;;;;29.39;34.30;102235.44;5035610;28;20052;-48
2022/07/02 09:21:00;;;;;;;1.30;1.20;;;;;;;29.08;31.57;102232.44;5033930;28;20086;-48
2022/07/02 09:23:26;;;;;;;1.40;1.30;;;;;;;28.91;30.13;102228.59;5035613;28;20053;-47
2022/07/02 09:25:53;;;;;;;1.40;1.10;;;;;;;28.62;28.54;102233.22;5034927;28;20049;-47
2022/07/02 09:28:19;;;;;;;1.75;1.27;;;;;;;28.56;30.85;102227.88;5035635;28;20057;-49
2022/07/02 09:30:47;;;;;;;1.30;1.10;;;;;;;29.18;35.74;102232.72;5034933;28;20054;-50
2022/07/02 09:33:33;;;;;;;1.88;1.25;;;;;;;29.78;34.05;102229.69;5035203;28;20054;-49
2022/07/02 09:36:07;;;;;;;2.72;1.30;;;;;;;29.42;32.79;102228.91;5032614;28;20050;-49
2022/07/02 09:38:41;;;;;;;6.32;1.20;;;;;;;28.80;30.76;102221.34;5035832;28;20061;-53
2022/07/02 09:41:11;;;;;;;1.23;1.15;;;;;;;28.86;29.81;102222.00;5034312;28;20058;-49
2022/07/02 09:43:38;;;;;;;1.85;1.30;;;;;;;28.38;29.32;102215.06;5034503;28;20069;-47
2022/07/02 09:46:18;;;;;;;2.28;1.25;;;;;;;28.67;29.90;102213.19;5034838;28;20049;-50
2022/07/02 09:48:46;;;;;;;2.25;1.40;;;;;;;28.80;31.60;102211.13;5035076;28;20060;-48
2022/07/02 09:51:14;;;;;;;2.55;1.40;;;;;;;28.69;31.66;102213.41;5035095;28;20060;-49
2022/07/02 09:53:52;;;;;;;1.58;1.10;;;;;;;28.56;29.88;102211.44;5034798;28;20137;-52
2022/07/02 09:56:21;;;;;;;2.28;1.30;;;;;;;28.35;30.59;102205.91;5034780;28;20050;-51
2022/07/02 09:58:48;;;;;;;2.00;1.20;;;;;;;28.92;31.27;102210.91;5034598;28;20050;-46
2022/07/02 10:01:22;;;;;;;2.85;1.30;;;;;;;29.15;29.80;102204.34;5034881;28;20394;-49
2022/07/02 10:03:49;;;;;;;1.92;1.83;;;;;;;29.19;31.05;102209.50;5035040;28;20054;-50
2022/07/02 10:06:15;;;;;;;1.23;1.13;;;;;;;28.97;30.84;102201.81;5034734;28;20508;-50
2022/07/02 10:08:43;;;;;;;1.10;1.00;;;;;;;28.94;30.66;102211.84;5034173;28;20050;-50
2022/07/02 10:11:11;;;;;;;1.48;1.25;;;;;;;28.98;29.86;102214.25;5034740;28;20057;-50
2022/07/02 10:13:39;;;;;;;3.45;1.10;;;;;;;28.61;29.64;102207.84;5034516;28;20056;-48
2022/07/02 10:16:13;;;;;;;1.63;1.52;;;;;;;28.86;30.42;102203.53;5034470;28;20053;-46
2022/07/02 10:18:41;;;;;;;2.40;1.23;;;;;;;28.81;32.95;102201.66;5034877;28;20093;-50
2022/07/02 10:21:11;;;;;;;1.55;1.20;;;;;;;29.30;29.76;102192.75;5033466;28;20050;-46
2022/07/02 10:23:45;;;;;;;3.88;1.30;;;;;;;29.64;32.07;102197.41;5034648;28;20068;-50
2022/07/02 10:26:12;;;;;;;1.38;1.20;;;;;;;30.11;33.94;102208.81;5034091;28;20597;-47
2022/07/02 10:28:39;;;;;;;8.27;1.90;;;;;;;30.19;28.31;102193.13;5031330;28;20050;-49
2022/07/02 10:31:08;;;;;;;1.38;1.27;;;;;;;29.95;27.70;102198.31;5032542;28;20057;-46
2022/07/02 10:34:14;;;;;;;2.60;1.17;;;;;;;29.89;29.59;102187.47;5032197;28;20053;-49
2022/07/02 10:36:41;;;;;;;1.30;1.20;;;;;;;29.18;30.61;102194.34;5033196;28;20045;-49
2022/07/02 10:39:16;;;;;;;1.27;1.13;;;;;;;27.98;31.19;102184.25;5031962;28;20946;-49
2022/07/02 10:41:43;;;;;;;1.67;1.40;;;;;;;28.34;33.21;102179.06;5032567;28;20138;-49
2022/07/02 10:44:10;;;;;;;3.60;1.02;;;;;;;28.67;32.60;102174.84;5030048;28;20062;-49
2022/07/02 10:46:36;;;;;;;3.40;1.48;;;;;;;28.51;31.58;102182.16;5032298;28;20050;-49
2022/07/02 10:49:05;;;;;;;4.40;1.38;;;;;;;27.84;31.26;102169.84;5032436;28;20108;-48
2022/07/02 10:51:35;;;;;;;4.00;1.10;;;;;;;28.34;35.13;102179.81;5033256;28;20050;-48
2022/07/02 10:54:07;;;;;;;1.73;1.17;;;;;;;28.36;32.07;102173.78;5033656;28;20087;-47
2022/07/02 10:56:49;;;;;;;2.85;1.20;;;;;;;28.76;32.61;102172.38;5033036;28;20054;-48
2022/07/02 10:59:19;;;;;;;1.27;1.08;;;;;;;29.26;31.99;102167.69;5032543;28;20081;-50
2022/07/02 11:01:46;;;;;;;1.75;1.30;;;;;;;28.01;31.54;102167.50;5032303;28;20522;-48
2022/07/02 11:04:20;;;;;;;1.65;1.15;;;;;;;27.43;34.81;102168.34;5033029;28;20058;-47
2022/07/02 11:06:47;;;;;;;1.63;1.08;;;;;;;27.04;34.12;102171.75;5032194;28;20145;-49
2022/07/02 11:09:14;;;;;;;2.35;1.10;;;;;;;28.34;32.65;102170.84;5032496;28;20045;-47
2022/07/02 11:11:40;;;;;;;3.33;1.27;;;;;;;28.06;32.68;102160.44;5033021;28;20042;-47
2022/07/02 11:14:08;;;;;;;2.45;1.35;;;;;;;27.37;32.82;102166.97;5032486;28;20134;-50
2022/07/02 11:16:40;;;;;;;1.17;1.08;;;;;;;26.78;34.21;102152.50;5028504;28;20053;-48
2022/07/02 11:19:18;;;;;;;1.98;1.27;;;;;;;26.16;35.40;102164.22;5032853;28;20054;-49
2022/07/02 11:21:49;;;;;;;3.00;1.20;;;;;;;25.63;37.35;102163.06;5029804;28;20129;-50
2022/07/02 11:24:22;;;;;;;1.48;1.10;;;;;;;25.46;37.08;102154.34;5032741;28;20065;-49
2022/07/02 11:26:49;;;;;;;4.78;1.30;;;;;;;25.72;37.44;102154.56;5030771;28;20057;-48
2022/07/02 11:29:16;;;;;;;1.65;1.23;;;;;;;25.87;38.20;102157.66;5031711;28;20050;-52
2022/07/02 11:31:49;;;;;;;1.83;1.20;;;;;;;27.38;34.86;102149.28;5032672;28;20662;-49